sensor_id;sensor_type;location;lat;lon;timestamp;P1;durP1;ratioP1;P2;durP2;ratioP2
1460;SDS011;724;49.910;12.530;2023-09-18T00:02:09;8.90;;;8.40;;
1460;SDS011;724;49.910;12.530;2023-09-18T00:04:36;9.60;;;9.10;;
1460;SDS011;724;49.910;12.530;2023-09-18T00:07:04;9.20;;;8.70;;
1460;SDS011;724;49.910;12.530;2023-09-18T00:09:31;9.37;;;8.87;;
1460;SDS011;724;49.910;12.530;2023-09-18T00:11:57;9.13;;;8.63;;
1460;SDS011;724;49.910;12.530;2023-09-18T00:14:24;9.00;;;8.50;;
1460;SDS011;724;49.910;12.530;2023-09-18T00:16:51;9.40;;;8.90;;
1460;SDS011;724;49.910;12.530;2023-09-18T00:19:19;8.90;;;8.40;;
1460;SDS011;724;49.910;12.530;2023-09-18T00:21:46;9.20;;;8.70;;
1460;SDS011;724;49.910;12.530;2023-09-18T00:24:14;9.10;;;8.60;;
1460;SDS011;724;49.910;12.530;2023-09-18T00:26:42;9.33;;;8.83;;
1460;SDS011;724;49.910;12.530;2023-09-18T00:29:11;8.83;;;8.33;;
1460;SDS011;724;49.910;12.530;2023-09-18T00:31:37;9.10;;;8.60;;
1460;SDS011;724;49.910;12.530;2023-09-18T00:34:04;9.40;;;8.90;;
1460;SDS011;724;49.910;12.530;2023-09-18T00:36:31;9.30;;;8.80;;
1460;SDS011;724;49.910;12.530;2023-09-18T00:38:58;9.30;;;8.80;;
1460;SDS011;724;49.910;12.530;2023-09-18T00:41:26;9.50;;;9.00;;
1460;SDS011;724;49.910;12.530;2023-09-18T00:43:52;9.30;;;8.80;;
1460;SDS011;724;49.910;12.530;2023-09-18T00:46:19;9.27;;;8.77;;
1460;SDS011;724;49.910;12.530;2023-09-18T00:48:47;9.20;;;8.70;;
1460;SDS011;724;49.910;12.530;2023-09-18T00:51:14;9.30;;;8.80;;
1460;SDS011;724;49.910;12.530;2023-09-18T00:53:42;9.40;;;8.90;;
1460;SDS011;724;49.910;12.530;2023-09-18T00:56:12;9.30;;;8.80;;
1460;SDS011;724;49.910;12.530;2023-09-18T00:58:41;9.40;;;8.90;;
1460;SDS011;724;49.910;12.530;2023-09-18T01:01:08;9.43;;;8.93;;
1460;SDS011;724;49.910;12.530;2023-09-18T01:03:37;9.13;;;8.63;;
1460;SDS011;724;49.910;12.530;2023-09-18T01:06:04;9.17;;;8.67;;
1460;SDS011;724;49.910;12.530;2023-09-18T01:08:30;9.10;;;8.60;;
1460;SDS011;724;49.910;12.530;2023-09-18T01:10:59;9.40;;;8.90;;
1460;SDS011;724;49.910;12.530;2023-09-18T01:13:34;9.20;;;8.70;;
1460;SDS011;724;49.910;12.530;2023-09-18T01:16:06;8.90;;;8.40;;
1460;SDS011;724;49.910;12.530;2023-09-18T01:18:48;8.90;;;8.40;;
1460;SDS011;724;49.910;12.530;2023-09-18T01:21:15;8.90;;;8.40;;
1460;SDS011;724;49.910;12.530;2023-09-18T01:23:43;8.70;;;8.20;;
1460;SDS011;724;49.910;12.530;2023-09-18T01:26:10;8.30;;;7.90;;
1460;SDS011;724;49.910;12.530;2023-09-18T01:28:37;8.43;;;7.97;;
1460;SDS011;724;49.910;12.530;2023-09-18T01:31:03;8.90;;;8.40;;
1460;SDS011;724;49.910;12.530;2023-09-18T01:33:30;8.53;;;8.03;;
1460;SDS011;724;49.910;12.530;2023-09-18T01:35:58;8.60;;;8.10;;
1460;SDS011;724;49.910;12.530;2023-09-18T01:38:27;8.27;;;7.87;;
1460;SDS011;724;49.910;12.530;2023-09-18T01:40:56;8.50;;;8.00;;
1460;SDS011;724;49.910;12.530;2023-09-18T01:43:23;9.00;;;8.50;;
1460;SDS011;724;49.910;12.530;2023-09-18T01:45:50;8.03;;;7.63;;
1460;SDS011;724;49.910;12.530;2023-09-18T01:48:17;8.80;;;8.30;;
1460;SDS011;724;49.910;12.530;2023-09-18T01:50:44;8.70;;;8.20;;
1460;SDS011;724;49.910;12.530;2023-09-18T01:53:12;8.17;;;7.77;;
1460;SDS011;724;49.910;12.530;2023-09-18T01:55:38;8.80;;;8.30;;
1460;SDS011;724;49.910;12.530;2023-09-18T01:58:06;9.10;;;8.60;;
1460;SDS011;724;49.910;12.530;2023-09-18T02:00:34;8.90;;;8.40;;
1460;SDS011;724;49.910;12.530;2023-09-18T02:03:01;9.00;;;8.50;;
1460;SDS011;724;49.910;12.530;2023-09-18T02:05:30;9.00;;;8.50;;
1460;SDS011;724;49.910;12.530;2023-09-18T02:07:57;8.80;;;8.30;;
1460;SDS011;724;49.910;12.530;2023-09-18T02:10:24;9.00;;;8.50;;
1460;SDS011;724;49.910;12.530;2023-09-18T02:12:51;9.10;;;8.60;;
1460;SDS011;724;49.910;12.530;2023-09-18T02:15:19;8.80;;;8.30;;
1460;SDS011;724;49.910;12.530;2023-09-18T02:17:46;8.90;;;8.40;;
1460;SDS011;724;49.910;12.530;2023-09-18T02:20:12;8.60;;;8.10;;
1460;SDS011;724;49.910;12.530;2023-09-18T02:22:39;8.57;;;8.07;;
1460;SDS011;724;49.910;12.530;2023-09-18T02:25:07;8.67;;;8.17;;
1460;SDS011;724;49.910;12.530;2023-09-18T02:27:34;8.50;;;8.00;;
1460;SDS011;724;49.910;12.530;2023-09-18T02:30:01;8.60;;;8.10;;
1460;SDS011;724;49.910;12.530;2023-09-18T02:32:30;8.50;;;8.00;;
1460;SDS011;724;49.910;12.530;2023-09-18T02:34:57;8.80;;;8.30;;
1460;SDS011;724;49.910;12.530;2023-09-18T02:37:24;8.80;;;8.30;;
1460;SDS011;724;49.910;12.530;2023-09-18T02:39:51;8.60;;;8.10;;
1460;SDS011;724;49.910;12.530;2023-09-18T02:42:18;8.80;;;8.30;;
1460;SDS011;724;49.910;12.530;2023-09-18T02:44:46;9.13;;;8.63;;
1460;SDS011;724;49.910;12.530;2023-09-18T02:47:13;9.00;;;8.50;;
1460;SDS011;724;49.910;12.530;2023-09-18T02:49:41;8.90;;;8.40;;
1460;SDS011;724;49.910;12.530;2023-09-18T02:52:08;9.10;;;8.60;;
1460;SDS011;724;49.910;12.530;2023-09-18T02:54:34;8.90;;;8.40;;
1460;SDS011;724;49.910;12.530;2023-09-18T02:57:01;8.70;;;8.20;;
1460;SDS011;724;49.910;12.530;2023-09-18T02:59:28;8.87;;;8.37;;
1460;SDS011;724;49.910;12.530;2023-09-18T03:01:56;8.37;;;7.93;;
1460;SDS011;724;49.910;12.530;2023-09-18T03:04:22;8.70;;;8.20;;
1460;SDS011;724;49.910;12.530;2023-09-18T03:06:50;9.00;;;8.50;;
1460;SDS011;724;49.910;12.530;2023-09-18T03:09:17;9.20;;;8.70;;
1460;SDS011;724;49.910;12.530;2023-09-18T03:11:44;8.80;;;8.30;;
1460;SDS011;724;49.910;12.530;2023-09-18T03:14:11;8.70;;;8.20;;
1460;SDS011;724;49.910;12.530;2023-09-18T03:16:38;8.50;;;8.00;;
1460;SDS011;724;49.910;12.530;2023-09-18T03:19:05;8.50;;;8.00;;
1460;SDS011;724;49.910;12.530;2023-09-18T03:21:31;8.23;;;7.83;;
1460;SDS011;724;49.910;12.530;2023-09-18T03:24:01;8.80;;;8.30;;
1460;SDS011;724;49.910;12.530;2023-09-18T03:26:29;8.80;;;8.30;;
1460;SDS011;724;49.910;12.530;2023-09-18T03:28:56;8.50;;;8.00;;
1460;SDS011;724;49.910;12.530;2023-09-18T03:31:22;9.20;;;8.70;;
1460;SDS011;724;49.910;12.530;2023-09-18T03:33:49;9.40;;;8.90;;
1460;SDS011;724;49.910;12.530;2023-09-18T03:36:16;9.50;;;9.00;;
1460;SDS011;724;49.910;12.530;2023-09-18T03:38:42;8.77;;;8.27;;
1460;SDS011;724;49.910;12.530;2023-09-18T03:41:10;9.30;;;8.80;;
1460;SDS011;724;49.910;12.530;2023-09-18T03:43:37;9.33;;;8.83;;
1460;SDS011;724;49.910;12.530;2023-09-18T03:46:04;9.60;;;9.10;;
1460;SDS011;724;49.910;12.530;2023-09-18T03:48:31;9.00;;;8.50;;
1460;SDS011;724;49.910;12.530;2023-09-18T03:51:02;9.60;;;9.10;;
1460;SDS011;724;49.910;12.530;2023-09-18T03:53:29;9.80;;;9.30;;
1460;SDS011;724;49.910;12.530;2023-09-18T03:55:56;9.57;;;9.07;;
1460;SDS011;724;49.910;12.530;2023-09-18T03:58:24;9.67;;;9.17;;
1460;SDS011;724;49.910;12.530;2023-09-18T04:00:51;9.30;;;8.80;;
1460;SDS011;724;49.910;12.530;2023-09-18T04:03:18;9.50;;;9.00;;
1460;SDS011;724;49.910;12.530;2023-09-18T04:05:45;9.50;;;9.00;;
1460;SDS011;724;49.910;12.530;2023-09-18T04:08:12;9.30;;;8.80;;
1460;SDS011;724;49.910;12.530;2023-09-18T04:10:38;9.90;;;9.40;;
1460;SDS011;724;49.910;12.530;2023-09-18T04:13:05;9.70;;;9.20;;
1460;SDS011;724;49.910;12.530;2023-09-18T04:15:35;9.50;;;9.00;;
1460;SDS011;724;49.910;12.530;2023-09-18T04:18:03;9.20;;;8.70;;
1460;SDS011;724;49.910;12.530;2023-09-18T04:20:30;9.03;;;8.53;;
1460;SDS011;724;49.910;12.530;2023-09-18T04:25:47;9.00;;;8.50;;
1460;SDS011;724;49.910;12.530;2023-09-18T04:28:15;9.50;;;9.00;;
1460;SDS011;724;49.910;12.530;2023-09-18T04:30:45;9.20;;;8.70;;
1460;SDS011;724;49.910;12.530;2023-09-18T04:33:12;9.20;;;8.70;;
1460;SDS011;724;49.910;12.530;2023-09-18T04:35:39;9.90;;;9.40;;
1460;SDS011;724;49.910;12.530;2023-09-18T04:38:06;9.83;;;9.33;;
1460;SDS011;724;49.910;12.530;2023-09-18T04:40:35;9.60;;;9.10;;
1460;SDS011;724;49.910;12.530;2023-09-18T04:43:02;9.80;;;9.30;;
1460;SDS011;724;49.910;12.530;2023-09-18T04:45:30;9.70;;;9.20;;
1460;SDS011;724;49.910;12.530;2023-09-18T04:47:58;9.80;;;9.30;;
1460;SDS011;724;49.910;12.530;2023-09-18T04:50:25;9.70;;;9.20;;
1460;SDS011;724;49.910;12.530;2023-09-18T04:52:52;9.70;;;9.20;;
1460;SDS011;724;49.910;12.530;2023-09-18T04:55:21;10.20;;;9.70;;
1460;SDS011;724;49.910;12.530;2023-09-18T04:57:48;9.60;;;9.10;;
1460;SDS011;724;49.910;12.530;2023-09-18T05:00:15;9.50;;;9.00;;
1460;SDS011;724;49.910;12.530;2023-09-18T05:02:42;10.10;;;9.60;;
1460;SDS011;724;49.910;12.530;2023-09-18T05:05:10;10.30;;;9.80;;
1460;SDS011;724;49.910;12.530;2023-09-18T05:07:38;10.00;;;9.50;;
1460;SDS011;724;49.910;12.530;2023-09-18T05:10:05;10.07;;;9.57;;
1460;SDS011;724;49.910;12.530;2023-09-18T05:12:33;10.27;;;9.77;;
1460;SDS011;724;49.910;12.530;2023-09-18T05:14:59;10.20;;;9.70;;
1460;SDS011;724;49.910;12.530;2023-09-18T05:17:39;10.60;;;10.00;;
1460;SDS011;724;49.910;12.530;2023-09-18T05:20:13;9.90;;;9.40;;
1460;SDS011;724;49.910;12.530;2023-09-18T05:22:42;9.90;;;9.40;;
1460;SDS011;724;49.910;12.530;2023-09-18T05:25:09;9.87;;;9.37;;
1460;SDS011;724;49.910;12.530;2023-09-18T05:27:36;10.53;;;9.97;;
1460;SDS011;724;49.910;12.530;2023-09-18T05:30:09;10.10;;;9.60;;
1460;SDS011;724;49.910;12.530;2023-09-18T05:32:37;10.10;;;9.60;;
1460;SDS011;724;49.910;12.530;2023-09-18T05:35:04;10.40;;;9.90;;
1460;SDS011;724;49.910;12.530;2023-09-18T05:37:36;10.27;;;9.77;;
1460;SDS011;724;49.910;12.530;2023-09-18T05:40:03;10.10;;;9.60;;
1460;SDS011;724;49.910;12.530;2023-09-18T05:42:32;10.10;;;9.60;;
1460;SDS011;724;49.910;12.530;2023-09-18T05:44:59;10.30;;;9.80;;
1460;SDS011;724;49.910;12.530;2023-09-18T05:47:25;10.80;;;10.20;;
1460;SDS011;724;49.910;12.530;2023-09-18T05:49:54;10.70;;;10.10;;
1460;SDS011;724;49.910;12.530;2023-09-18T05:52:21;11.20;;;10.60;;
1460;SDS011;724;49.910;12.530;2023-09-18T05:54:50;11.30;;;10.70;;
1460;SDS011;724;49.910;12.530;2023-09-18T05:57:17;11.13;;;10.53;;
1460;SDS011;724;49.910;12.530;2023-09-18T05:59:44;11.40;;;10.80;;
1460;SDS011;724;49.910;12.530;2023-09-18T06:02:11;10.90;;;10.30;;
1460;SDS011;724;49.910;12.530;2023-09-18T06:04:38;11.30;;;10.70;;
1460;SDS011;724;49.910;12.530;2023-09-18T06:07:05;11.23;;;10.63;;
1460;SDS011;724;49.910;12.530;2023-09-18T06:09:32;11.50;;;10.90;;
1460;SDS011;724;49.910;12.530;2023-09-18T06:12:00;11.57;;;10.97;;
1460;SDS011;724;49.910;12.530;2023-09-18T06:14:30;11.40;;;10.80;;
1460;SDS011;724;49.910;12.530;2023-09-18T06:16:56;11.50;;;10.90;;
1460;SDS011;724;49.910;12.530;2023-09-18T06:19:24;11.83;;;11.23;;
1460;SDS011;724;49.910;12.530;2023-09-18T06:21:51;11.40;;;10.80;;
1460;SDS011;724;49.910;12.530;2023-09-18T06:24:18;11.77;;;11.17;;
1460;SDS011;724;49.910;12.530;2023-09-18T06:26:44;11.70;;;11.10;;
1460;SDS011;724;49.910;12.530;2023-09-18T06:29:12;12.10;;;11.50;;
1460;SDS011;724;49.910;12.530;2023-09-18T06:31:39;11.70;;;11.10;;
1460;SDS011;724;49.910;12.530;2023-09-18T06:34:06;12.00;;;11.40;;
1460;SDS011;724;49.910;12.530;2023-09-18T06:36:33;11.80;;;11.20;;
1460;SDS011;724;49.910;12.530;2023-09-18T06:38:59;12.23;;;11.63;;
1460;SDS011;724;49.910;12.530;2023-09-18T06:41:27;11.90;;;11.30;;
1460;SDS011;724;49.910;12.530;2023-09-18T06:43:54;11.90;;;11.30;;
1460;SDS011;724;49.910;12.530;2023-09-18T06:46:23;12.10;;;11.50;;
1460;SDS011;724;49.910;12.530;2023-09-18T06:48:50;11.60;;;11.00;;
1460;SDS011;724;49.910;12.530;2023-09-18T06:51:17;12.40;;;11.80;;
1460;SDS011;724;49.910;12.530;2023-09-18T06:53:44;11.90;;;11.30;;
1460;SDS011;724;49.910;12.530;2023-09-18T06:56:11;12.00;;;11.40;;
1460;SDS011;724;49.910;12.530;2023-09-18T06:58:38;11.60;;;11.00;;
1460;SDS011;724;49.910;12.530;2023-09-18T07:01:05;11.53;;;10.93;;
1460;SDS011;724;49.910;12.530;2023-09-18T07:03:35;11.40;;;10.80;;
1460;SDS011;724;49.910;12.530;2023-09-18T07:06:05;11.47;;;10.87;;
1460;SDS011;724;49.910;12.530;2023-09-18T07:08:31;11.17;;;10.57;;
1460;SDS011;724;49.910;12.530;2023-09-18T07:10:58;11.30;;;10.70;;
1460;SDS011;724;49.910;12.530;2023-09-18T07:13:26;11.40;;;10.80;;
1460;SDS011;724;49.910;12.530;2023-09-18T07:15:52;11.33;;;10.73;;
1460;SDS011;724;49.910;12.530;2023-09-18T07:18:19;11.47;;;10.87;;
1460;SDS011;724;49.910;12.530;2023-09-18T07:20:47;11.40;;;10.80;;
1460;SDS011;724;49.910;12.530;2023-09-18T07:23:14;11.50;;;10.90;;
1460;SDS011;724;49.910;12.530;2023-09-18T07:25:41;11.10;;;10.50;;
1460;SDS011;724;49.910;12.530;2023-09-18T07:28:09;11.37;;;10.77;;
1460;SDS011;724;49.910;12.530;2023-09-18T07:30:40;11.40;;;10.80;;
1460;SDS011;724;49.910;12.530;2023-09-18T07:33:08;11.00;;;10.40;;
1460;SDS011;724;49.910;12.530;2023-09-18T07:35:35;11.30;;;10.70;;
1460;SDS011;724;49.910;12.530;2023-09-18T07:38:04;11.37;;;10.77;;
1460;SDS011;724;49.910;12.530;2023-09-18T07:40:31;11.70;;;11.10;;
1460;SDS011;724;49.910;12.530;2023-09-18T07:42:57;11.50;;;10.90;;
1460;SDS011;724;49.910;12.530;2023-09-18T07:45:24;11.57;;;10.97;;
1460;SDS011;724;49.910;12.530;2023-09-18T07:47:51;11.90;;;11.30;;
1460;SDS011;724;49.910;12.530;2023-09-18T07:50:18;11.50;;;10.90;;
1460;SDS011;724;49.910;12.530;2023-09-18T07:52:44;12.07;;;11.47;;
1460;SDS011;724;49.910;12.530;2023-09-18T07:55:12;11.90;;;11.30;;
1460;SDS011;724;49.910;12.530;2023-09-18T07:57:39;11.50;;;10.90;;
1460;SDS011;724;49.910;12.530;2023-09-18T08:00:06;11.57;;;10.97;;
1460;SDS011;724;49.910;12.530;2023-09-18T08:02:37;11.63;;;11.03;;
1460;SDS011;724;49.910;12.530;2023-09-18T08:05:04;11.50;;;10.90;;
1460;SDS011;724;49.910;12.530;2023-09-18T08:07:32;12.00;;;11.40;;
1460;SDS011;724;49.910;12.530;2023-09-18T08:10:00;11.80;;;11.20;;
1460;SDS011;724;49.910;12.530;2023-09-18T08:12:31;12.00;;;11.40;;
1460;SDS011;724;49.910;12.530;2023-09-18T08:14:58;11.60;;;11.00;;
1460;SDS011;724;49.910;12.530;2023-09-18T08:17:25;11.70;;;11.10;;
1460;SDS011;724;49.910;12.530;2023-09-18T08:19:52;11.87;;;11.27;;
1460;SDS011;724;49.910;12.530;2023-09-18T08:22:19;11.77;;;11.17;;
1460;SDS011;724;49.910;12.530;2023-09-18T08:24:46;11.53;;;10.93;;
1460;SDS011;724;49.910;12.530;2023-09-18T08:27:13;12.23;;;11.63;;
1460;SDS011;724;49.910;12.530;2023-09-18T08:29:44;12.03;;;11.43;;
1460;SDS011;724;49.910;12.530;2023-09-18T08:32:11;11.90;;;11.30;;
1460;SDS011;724;49.910;12.530;2023-09-18T08:34:37;12.30;;;11.70;;
1460;SDS011;724;49.910;12.530;2023-09-18T08:37:04;12.37;;;11.77;;
1460;SDS011;724;49.910;12.530;2023-09-18T08:39:31;12.50;;;11.90;;
1460;SDS011;724;49.910;12.530;2023-09-18T08:41:58;12.50;;;11.90;;
1460;SDS011;724;49.910;12.530;2023-09-18T08:44:28;12.80;;;12.10;;
1460;SDS011;724;49.910;12.530;2023-09-18T08:46:57;13.40;;;12.70;;
1460;SDS011;724;49.910;12.530;2023-09-18T08:49:24;12.40;;;11.80;;
1460;SDS011;724;49.910;12.530;2023-09-18T08:51:53;12.70;;;12.00;;
1460;SDS011;724;49.910;12.530;2023-09-18T08:54:21;12.43;;;11.83;;
1460;SDS011;724;49.910;12.530;2023-09-18T08:56:49;11.80;;;11.20;;
1460;SDS011;724;49.910;12.530;2023-09-18T08:59:16;11.97;;;11.37;;
1460;SDS011;724;49.910;12.530;2023-09-18T09:01:43;12.33;;;11.73;;
1460;SDS011;724;49.910;12.530;2023-09-18T09:04:11;11.20;;;10.60;;
1460;SDS011;724;49.910;12.530;2023-09-18T09:06:38;11.53;;;10.93;;
1460;SDS011;724;49.910;12.530;2023-09-18T09:09:05;11.47;;;10.87;;
1460;SDS011;724;49.910;12.530;2023-09-18T09:11:32;11.50;;;10.90;;
1460;SDS011;724;49.910;12.530;2023-09-18T09:16:47;12.07;;;11.47;;
1460;SDS011;724;49.910;12.530;2023-09-18T09:19:29;12.03;;;11.43;;
1460;SDS011;724;49.910;12.530;2023-09-18T09:21:57;12.20;;;11.60;;
1460;SDS011;724;49.910;12.530;2023-09-18T09:24:36;12.73;;;12.03;;
1460;SDS011;724;49.910;12.530;2023-09-18T09:27:04;12.13;;;11.53;;
1460;SDS011;724;49.910;12.530;2023-09-18T09:29:30;12.20;;;11.60;;
1460;SDS011;724;49.910;12.530;2023-09-18T09:32:03;12.23;;;11.63;;
1460;SDS011;724;49.910;12.530;2023-09-18T09:34:40;12.30;;;11.70;;
1460;SDS011;724;49.910;12.530;2023-09-18T09:37:08;12.30;;;11.70;;
1460;SDS011;724;49.910;12.530;2023-09-18T09:39:45;12.40;;;11.80;;
1460;SDS011;724;49.910;12.530;2023-09-18T09:42:14;12.30;;;11.70;;
1460;SDS011;724;49.910;12.530;2023-09-18T09:44:47;12.37;;;11.77;;
1460;SDS011;724;49.910;12.530;2023-09-18T09:47:14;12.00;;;11.40;;
1460;SDS011;724;49.910;12.530;2023-09-18T09:49:48;12.17;;;11.57;;
1460;SDS011;724;49.910;12.530;2023-09-18T09:52:17;12.20;;;11.60;;
1460;SDS011;724;49.910;12.530;2023-09-18T09:54:46;12.03;;;11.43;;
1460;SDS011;724;49.910;12.530;2023-09-18T09:57:13;12.00;;;11.40;;
1460;SDS011;724;49.910;12.530;2023-09-18T09:59:40;12.17;;;11.57;;
1460;SDS011;724;49.910;12.530;2023-09-18T10:02:09;12.70;;;12.00;;
1460;SDS011;724;49.910;12.530;2023-09-18T10:04:39;12.23;;;11.63;;
1460;SDS011;724;49.910;12.530;2023-09-18T10:07:10;12.00;;;11.40;;
1460;SDS011;724;49.910;12.530;2023-09-18T10:09:38;11.90;;;11.30;;
1460;SDS011;724;49.910;12.530;2023-09-18T10:12:10;12.00;;;11.40;;
1460;SDS011;724;49.910;12.530;2023-09-18T10:14:38;12.40;;;11.80;;
1460;SDS011;724;49.910;12.530;2023-09-18T10:17:09;12.30;;;11.70;;
1460;SDS011;724;49.910;12.530;2023-09-18T10:19:44;12.00;;;11.40;;
1460;SDS011;724;49.910;12.530;2023-09-18T10:22:23;11.80;;;11.20;;
1460;SDS011;724;49.910;12.530;2023-09-18T10:24:59;11.90;;;11.30;;
1460;SDS011;724;49.910;12.530;2023-09-18T10:27:35;12.20;;;11.60;;
1460;SDS011;724;49.910;12.530;2023-09-18T10:30:06;12.07;;;11.47;;
1460;SDS011;724;49.910;12.530;2023-09-18T10:32:36;11.90;;;11.30;;
1460;SDS011;724;49.910;12.530;2023-09-18T10:35:04;11.70;;;11.10;;
1460;SDS011;724;49.910;12.530;2023-09-18T10:37:34;11.77;;;11.17;;
1460;SDS011;724;49.910;12.530;2023-09-18T10:40:02;12.10;;;11.50;;
1460;SDS011;724;49.910;12.530;2023-09-18T10:42:33;11.90;;;11.30;;
1460;SDS011;724;49.910;12.530;2023-09-18T10:45:00;12.03;;;11.43;;
1460;SDS011;724;49.910;12.530;2023-09-18T10:47:29;12.10;;;11.50;;
1460;SDS011;724;49.910;12.530;2023-09-18T10:49:58;11.70;;;11.10;;
1460;SDS011;724;49.910;12.530;2023-09-18T10:52:26;11.97;;;11.37;;
1460;SDS011;724;49.910;12.530;2023-09-18T10:54:54;12.40;;;11.80;;
1460;SDS011;724;49.910;12.530;2023-09-18T10:57:21;11.90;;;11.30;;
1460;SDS011;724;49.910;12.530;2023-09-18T10:59:48;12.87;;;12.17;;
1460;SDS011;724;49.910;12.530;2023-09-18T11:02:14;12.73;;;12.03;;
1460;SDS011;724;49.910;12.530;2023-09-18T11:04:42;12.93;;;12.23;;
1460;SDS011;724;49.910;12.530;2023-09-18T11:07:19;13.00;;;12.30;;
1460;SDS011;724;49.910;12.530;2023-09-18T11:09:46;13.17;;;12.47;;
1460;SDS011;724;49.910;12.530;2023-09-18T11:12:15;12.93;;;12.23;;
1460;SDS011;724;49.910;12.530;2023-09-18T11:14:44;14.00;;;13.30;;
1460;SDS011;724;49.910;12.530;2023-09-18T11:17:29;13.90;;;13.20;;
1460;SDS011;724;49.910;12.530;2023-09-18T11:20:07;14.10;;;13.40;;
1460;SDS011;724;49.910;12.530;2023-09-18T11:22:45;13.50;;;12.80;;
1460;SDS011;724;49.910;12.530;2023-09-18T11:25:29;13.33;;;12.63;;
1460;SDS011;724;49.910;12.530;2023-09-18T11:28:01;12.97;;;12.27;;
1460;SDS011;724;49.910;12.530;2023-09-18T11:30:31;12.40;;;11.80;;
1460;SDS011;724;49.910;12.530;2023-09-18T11:33:00;12.30;;;11.70;;
1460;SDS011;724;49.910;12.530;2023-09-18T11:35:29;12.33;;;11.73;;
1460;SDS011;724;49.910;12.530;2023-09-18T11:38:08;13.10;;;12.40;;
1460;SDS011;724;49.910;12.530;2023-09-18T11:40:36;13.07;;;12.37;;
1460;SDS011;724;49.910;12.530;2023-09-18T11:43:21;13.23;;;12.53;;
1460;SDS011;724;49.910;12.530;2023-09-18T11:45:50;13.20;;;12.50;;
1460;SDS011;724;49.910;12.530;2023-09-18T11:48:18;13.53;;;12.83;;
1460;SDS011;724;49.910;12.530;2023-09-18T11:50:48;13.10;;;12.40;;
1460;SDS011;724;49.910;12.530;2023-09-18T11:53:16;12.93;;;12.23;;
1460;SDS011;724;49.910;12.530;2023-09-18T11:55:44;13.23;;;12.53;;
1460;SDS011;724;49.910;12.530;2023-09-18T11:58:11;13.10;;;12.40;;
1460;SDS011;724;49.910;12.530;2023-09-18T12:00:39;13.03;;;12.33;;
1460;SDS011;724;49.910;12.530;2023-09-18T12:03:15;12.50;;;11.90;;
1460;SDS011;724;49.910;12.530;2023-09-18T12:05:53;12.50;;;11.90;;
1460;SDS011;724;49.910;12.530;2023-09-18T12:08:22;12.40;;;11.80;;
1460;SDS011;724;49.910;12.530;2023-09-18T12:10:51;12.40;;;11.80;;
1460;SDS011;724;49.910;12.530;2023-09-18T12:13:18;12.30;;;11.70;;
1460;SDS011;724;49.910;12.530;2023-09-18T12:15:47;12.50;;;11.90;;
1460;SDS011;724;49.910;12.530;2023-09-18T12:18:15;12.40;;;11.80;;
1460;SDS011;724;49.910;12.530;2023-09-18T12:20:46;12.00;;;11.40;;
1460;SDS011;724;49.910;12.530;2023-09-18T12:23:14;12.50;;;11.90;;
1460;SDS011;724;49.910;12.530;2023-09-18T12:25:44;12.23;;;11.63;;
1460;SDS011;724;49.910;12.530;2023-09-18T12:28:13;11.90;;;11.30;;
1460;SDS011;724;49.910;12.530;2023-09-18T12:30:40;12.40;;;11.80;;
1460;SDS011;724;49.910;12.530;2023-09-18T12:33:08;12.20;;;11.60;;
1460;SDS011;724;49.910;12.530;2023-09-18T12:35:36;12.10;;;11.50;;
1460;SDS011;724;49.910;12.530;2023-09-18T12:38:13;12.20;;;11.60;;
1460;SDS011;724;49.910;12.530;2023-09-18T12:40:41;12.20;;;11.60;;
1460;SDS011;724;49.910;12.530;2023-09-18T12:43:09;12.23;;;11.63;;
1460;SDS011;724;49.910;12.530;2023-09-18T12:45:38;11.80;;;11.20;;
1460;SDS011;724;49.910;12.530;2023-09-18T12:48:05;11.70;;;11.10;;
1460;SDS011;724;49.910;12.530;2023-09-18T12:50:34;11.40;;;10.80;;
1460;SDS011;724;49.910;12.530;2023-09-18T12:53:10;11.60;;;11.00;;
1460;SDS011;724;49.910;12.530;2023-09-18T12:55:38;12.00;;;11.40;;
1460;SDS011;724;49.910;12.530;2023-09-18T12:58:06;11.90;;;11.30;;
1460;SDS011;724;49.910;12.530;2023-09-18T13:00:37;11.80;;;11.20;;
1460;SDS011;724;49.910;12.530;2023-09-18T13:03:11;11.97;;;11.37;;
1460;SDS011;724;49.910;12.530;2023-09-18T13:05:40;12.20;;;11.60;;
1460;SDS011;724;49.910;12.530;2023-09-18T13:08:07;12.93;;;12.23;;
1460;SDS011;724;49.910;12.530;2023-09-18T13:10:46;12.37;;;11.77;;
1460;SDS011;724;49.910;12.530;2023-09-18T13:13:17;12.90;;;12.20;;
1460;SDS011;724;49.910;12.530;2023-09-18T13:15:47;12.50;;;11.90;;
1460;SDS011;724;49.910;12.530;2023-09-18T13:18:17;12.40;;;11.80;;
1460;SDS011;724;49.910;12.530;2023-09-18T13:20:50;12.40;;;11.80;;
1460;SDS011;724;49.910;12.530;2023-09-18T13:23:16;12.20;;;11.60;;
1460;SDS011;724;49.910;12.530;2023-09-18T13:25:43;12.00;;;11.40;;
1460;SDS011;724;49.910;12.530;2023-09-18T13:28:13;11.67;;;11.07;;
1460;SDS011;724;49.910;12.530;2023-09-18T13:30:49;11.70;;;11.10;;
1460;SDS011;724;49.910;12.530;2023-09-18T13:33:17;11.53;;;10.93;;
1460;SDS011;724;49.910;12.530;2023-09-18T13:35:47;11.50;;;10.90;;
1460;SDS011;724;49.910;12.530;2023-09-18T13:38:17;11.93;;;11.33;;
1460;SDS011;724;49.910;12.530;2023-09-18T13:40:45;11.60;;;11.00;;
1460;SDS011;724;49.910;12.530;2023-09-18T13:43:13;11.60;;;11.00;;
1460;SDS011;724;49.910;12.530;2023-09-18T13:45:43;12.30;;;11.70;;
1460;SDS011;724;49.910;12.530;2023-09-18T13:48:11;11.83;;;11.23;;
1460;SDS011;724;49.910;12.530;2023-09-18T13:50:40;11.00;;;10.40;;
1460;SDS011;724;49.910;12.530;2023-09-18T13:53:07;10.80;;;10.20;;
1460;SDS011;724;49.910;12.530;2023-09-18T13:55:35;11.07;;;10.47;;
1460;SDS011;724;49.910;12.530;2023-09-18T13:58:02;11.37;;;10.77;;
1460;SDS011;724;49.910;12.530;2023-09-18T14:00:29;11.10;;;10.50;;
1460;SDS011;724;49.910;12.530;2023-09-18T14:02:56;11.53;;;10.93;;
1460;SDS011;724;49.910;12.530;2023-09-18T14:05:23;11.23;;;10.63;;
1460;SDS011;724;49.910;12.530;2023-09-18T14:07:51;11.00;;;10.40;;
1460;SDS011;724;49.910;12.530;2023-09-18T14:10:22;11.40;;;10.80;;
1460;SDS011;724;49.910;12.530;2023-09-18T14:12:50;10.43;;;9.90;;
1460;SDS011;724;49.910;12.530;2023-09-18T14:15:17;11.00;;;10.40;;
1460;SDS011;724;49.910;12.530;2023-09-18T14:17:44;10.60;;;10.00;;
1460;SDS011;724;49.910;12.530;2023-09-18T14:20:11;11.10;;;10.50;;
1460;SDS011;724;49.910;12.530;2023-09-18T14:22:38;10.60;;;10.00;;
1460;SDS011;724;49.910;12.530;2023-09-18T14:25:06;10.30;;;9.80;;
1460;SDS011;724;49.910;12.530;2023-09-18T14:27:34;10.70;;;10.10;;
1460;SDS011;724;49.910;12.530;2023-09-18T14:30:02;10.00;;;9.50;;
1460;SDS011;724;49.910;12.530;2023-09-18T14:32:31;10.00;;;9.50;;
1460;SDS011;724;49.910;12.530;2023-09-18T14:34:58;10.40;;;9.90;;
1460;SDS011;724;49.910;12.530;2023-09-18T14:37:26;11.10;;;10.50;;
1460;SDS011;724;49.910;12.530;2023-09-18T14:39:53;10.90;;;10.30;;
1460;SDS011;724;49.910;12.530;2023-09-18T14:42:21;10.87;;;10.27;;
1460;SDS011;724;49.910;12.530;2023-09-18T14:44:49;10.70;;;10.10;;
1460;SDS011;724;49.910;12.530;2023-09-18T14:47:19;10.77;;;10.17;;
1460;SDS011;724;49.910;12.530;2023-09-18T14:49:46;10.77;;;10.17;;
1460;SDS011;724;49.910;12.530;2023-09-18T14:52:14;10.10;;;9.60;;
1460;SDS011;724;49.910;12.530;2023-09-18T14:54:43;9.97;;;9.47;;
1460;SDS011;724;49.910;12.530;2023-09-18T14:57:10;10.10;;;9.60;;
1460;SDS011;724;49.910;12.530;2023-09-18T14:59:37;10.07;;;9.57;;
1460;SDS011;724;49.910;12.530;2023-09-18T15:02:07;10.17;;;9.67;;
1460;SDS011;724;49.910;12.530;2023-09-18T15:04:35;10.40;;;9.90;;
1460;SDS011;724;49.910;12.530;2023-09-18T15:07:02;9.83;;;9.33;;
1460;SDS011;724;49.910;12.530;2023-09-18T15:09:28;9.50;;;9.00;;
1460;SDS011;724;49.910;12.530;2023-09-18T15:11:55;9.30;;;8.80;;